createdAt,value
2022-09-20T00:04:47.635Z,100.00
2022-09-20T00:15:07.367Z,100.00
2022-09-20T00:25:13.834Z,100.00
2022-09-20T00:36:18.640Z,100.00
2022-09-20T00:46:43.950Z,100.00
2022-09-20T00:57:36.430Z,100.00
2022-09-20T01:08:50.605Z,100.00
2022-09-20T01:20:08.943Z,100.00
2022-09-20T01:30:49.594Z,100.00
2022-09-20T01:41:39.058Z,100.00
2022-09-20T01:53:10.202Z,100.00
2022-09-20T02:04:08.191Z,100.00
2022-09-20T02:14:51.878Z,100.00
2022-09-20T02:25:54.467Z,100.00
2022-09-20T02:36:26.344Z,100.00
2022-09-20T02:47:37.188Z,100.00
2022-09-20T02:58:29.610Z,100.00
2022-09-20T03:09:11.168Z,100.00
2022-09-20T03:19:45.713Z,100.00
2022-09-20T03:30:41.645Z,100.00
2022-09-20T03:41:49.995Z,100.00
2022-09-20T03:52:59.058Z,100.00
2022-09-20T04:03:46.806Z,100.00
2022-09-20T04:14:19.441Z,100.00
2022-09-20T04:25:11.078Z,100.00
2022-09-20T04:36:30.384Z,100.00
2022-09-20T04:47:48.973Z,100.00
2022-09-20T04:58:38.816Z,100.00
2022-09-20T05:09:44.752Z,100.00
2022-09-20T05:20:53.909Z,100.00
2022-09-20T05:32:11.784Z,100.00
2022-09-20T05:43:03.973Z,100.00
2022-09-20T05:54:22.329Z,100.00
2022-09-20T06:05:02.530Z,100.00
2022-09-20T06:15:39.913Z,100.00
2022-09-20T06:25:57.761Z,100.00
2022-09-20T06:36:28.480Z,100.00
2022-09-20T06:46:48.370Z,100.00
2022-09-20T06:57:06.056Z,100.00
2022-09-20T07:07:21.219Z,100.00
2022-09-20T07:17:38.643Z,100.00
2022-09-20T07:27:48.204Z,100.00
2022-09-20T07:38:31.181Z,100.00
2022-09-20T07:48:46.633Z,100.00
2022-09-20T07:58:53.078Z,100.00
2022-09-20T08:09:36.250Z,100.00
2022-09-20T08:19:59.144Z,100.00
2022-09-20T08:30:10.910Z,100.00
2022-09-20T08:40:30.297Z,100.00
2022-09-20T08:51:33.655Z,100.00
2022-09-20T09:02:36.431Z,100.00
2022-09-20T09:13:36.411Z,100.00
2022-09-20T09:24:16.095Z,100.00
2022-09-20T09:34:49.711Z,100.00
2022-09-20T09:45:30.686Z,100.00
2022-09-20T09:55:57.955Z,100.00
2022-09-20T10:07:05.740Z,100.00
2022-09-20T10:17:43.810Z,100.00
2022-09-20T10:28:29.106Z,100.00
2022-09-20T10:39:12.926Z,100.00
2022-09-20T10:49:50.749Z,99.89
2022-09-20T11:00:44.963Z,98.38
2022-09-20T11:11:00.625Z,97.24
2022-09-20T11:21:24.167Z,95.87
2022-09-20T11:31:34.046Z,92.90
2022-09-20T11:41:41.567Z,90.92
2022-09-20T11:52:46.160Z,89.28
2022-09-20T12:02:55.060Z,86.84
2022-09-20T12:13:25.988Z,87.29
2022-09-20T12:23:45.298Z,84.84
2022-09-20T12:34:29.232Z,84.17
2022-09-20T12:44:41.299Z,82.35
2022-09-20T12:55:11.177Z,81.79
2022-09-20T13:05:40.724Z,78.57
2022-09-20T13:16:05.809Z,77.06
2022-09-20T13:26:18.926Z,75.19
2022-09-20T13:36:37.715Z,75.45
2022-09-20T13:46:54.400Z,74.97
2022-09-20T13:57:22.798Z,74.18
2022-09-20T14:07:47.559Z,72.79
2022-09-20T14:17:59.349Z,73.00
2022-09-20T14:28:26.801Z,73.96
2022-09-20T14:38:34.419Z,74.73
2022-09-20T14:48:43.135Z,73.86
2022-09-20T14:59:47.181Z,73.93
2022-09-20T15:09:56.674Z,74.79
2022-09-20T15:20:06.069Z,75.40
2022-09-20T15:30:11.567Z,76.70
2022-09-20T15:40:20.817Z,76.71
2022-09-20T15:50:27.707Z,78.19
2022-09-20T16:00:46.009Z,80.95
2022-09-20T16:10:59.409Z,82.21
2022-09-20T16:21:28.966Z,82.38
2022-09-20T16:31:50.642Z,79.45
2022-09-20T16:42:20.874Z,80.20
2022-09-20T16:52:29.538Z,82.25
2022-09-20T17:02:36.356Z,84.59
2022-09-20T17:12:46.486Z,86.42
2022-09-20T17:23:29.011Z,86.21
2022-09-20T17:33:49.053Z,87.16
2022-09-20T17:43:59.957Z,88.84
2022-09-20T17:54:14.134Z,90.52
2022-09-20T18:04:25.328Z,90.91
2022-09-20T18:14:41.570Z,91.72
2022-09-20T18:24:50.363Z,92.73
2022-09-20T18:35:06.812Z,93.88
2022-09-20T18:45:10.507Z,94.42
2022-09-20T18:55:17.340Z,94.60
2022-09-20T19:05:44.949Z,95.09
2022-09-20T19:16:18.985Z,95.50
2022-09-20T19:26:28.214Z,96.10
2022-09-20T19:37:00.535Z,96.84
2022-09-20T19:48:04.264Z,98.09
2022-09-20T19:58:14.909Z,97.92
2022-09-20T20:08:33.276Z,98.20
2022-09-20T20:19:32.639Z,98.64
2022-09-20T20:29:46.334Z,97.44
2022-09-20T20:40:09.592Z,96.55
2022-09-20T20:50:24.717Z,96.48
2022-09-20T21:01:16.479Z,97.21
2022-09-20T21:12:30.567Z,97.79
2022-09-20T21:23:38.056Z,99.15
2022-09-20T21:34:00.609Z,99.75
2022-09-20T21:44:37.479Z,99.87
2022-09-20T21:55:55.171Z,99.99
2022-09-20T22:06:46.680Z,99.93
2022-09-20T22:16:54.793Z,99.99
2022-09-20T22:27:26.740Z,100.00
2022-09-20T22:37:42.248Z,100.00
2022-09-20T22:48:04.795Z,100.00
2022-09-20T22:58:13.674Z,100.00
2022-09-20T23:08:34.649Z,100.00
2022-09-20T23:18:50.979Z,100.00
2022-09-20T23:29:36.628Z,100.00
2022-09-20T23:39:53.073Z,100.00
2022-09-20T23:50:53.056Z,100.00
